sensor_id;sensor_type;location;lat;lon;timestamp;temperature;humidity
12329;DHT22;6230;52.390;10.256;2022-11-23T00:00:31;7.30;75.40
12329;DHT22;6230;52.390;10.256;2022-11-23T00:02:57;7.40;75.40
12329;DHT22;6230;52.390;10.256;2022-11-23T00:05:24;7.40;75.30
12329;DHT22;6230;52.390;10.256;2022-11-23T00:07:50;7.40;75.30
12329;DHT22;6230;52.390;10.256;2022-11-23T00:10:16;7.40;75.20
12329;DHT22;6230;52.390;10.256;2022-11-23T00:12:42;7.40;75.20
12329;DHT22;6230;52.390;10.256;2022-11-23T00:15:08;7.40;75.30
12329;DHT22;6230;52.390;10.256;2022-11-23T00:17:34;7.40;75.30
12329;DHT22;6230;52.390;10.256;2022-11-23T00:19:59;7.40;75.40
12329;DHT22;6230;52.390;10.256;2022-11-23T00:22:25;7.40;75.40
12329;DHT22;6230;52.390;10.256;2022-11-23T00:24:51;7.40;75.40
12329;DHT22;6230;52.390;10.256;2022-11-23T00:27:16;7.40;75.50
12329;DHT22;6230;52.390;10.256;2022-11-23T00:29:42;7.40;75.50
12329;DHT22;6230;52.390;10.256;2022-11-23T00:32:07;7.40;75.40
12329;DHT22;6230;52.390;10.256;2022-11-23T00:34:33;7.40;75.40
12329;DHT22;6230;52.390;10.256;2022-11-23T00:36:58;7.40;75.40
12329;DHT22;6230;52.390;10.256;2022-11-23T00:39:24;7.30;75.40
12329;DHT22;6230;52.390;10.256;2022-11-23T00:41:50;7.30;75.50
12329;DHT22;6230;52.390;10.256;2022-11-23T00:44:15;7.30;75.50
12329;DHT22;6230;52.390;10.256;2022-11-23T00:46:41;7.30;75.50
12329;DHT22;6230;52.390;10.256;2022-11-23T00:49:06;7.30;75.60
12329;DHT22;6230;52.390;10.256;2022-11-23T00:51:34;7.30;75.50
12329;DHT22;6230;52.390;10.256;2022-11-23T00:54:00;7.30;75.40
12329;DHT22;6230;52.390;10.256;2022-11-23T00:56:27;7.30;75.40
12329;DHT22;6230;52.390;10.256;2022-11-23T00:58:55;7.30;75.40
12329;DHT22;6230;52.390;10.256;2022-11-23T01:01:23;7.30;75.50
12329;DHT22;6230;52.390;10.256;2022-11-23T01:03:51;7.20;75.40
12329;DHT22;6230;52.390;10.256;2022-11-23T01:06:19;7.20;75.60
12329;DHT22;6230;52.390;10.256;2022-11-23T01:08:49;7.20;75.60
12329;DHT22;6230;52.390;10.256;2022-11-23T01:11:15;7.20;75.60
12329;DHT22;6230;52.390;10.256;2022-11-23T01:13:41;7.20;75.60
12329;DHT22;6230;52.390;10.256;2022-11-23T01:16:12;7.20;75.80
12329;DHT22;6230;52.390;10.256;2022-11-23T01:18:38;7.10;75.90
12329;DHT22;6230;52.390;10.256;2022-11-23T01:21:04;7.10;76.00
12329;DHT22;6230;52.390;10.256;2022-11-23T01:23:29;7.10;76.10
12329;DHT22;6230;52.390;10.256;2022-11-23T01:25:55;7.10;76.10
12329;DHT22;6230;52.390;10.256;2022-11-23T01:28:22;7.10;76.20
12329;DHT22;6230;52.390;10.256;2022-11-23T01:30:47;7.00;76.20
12329;DHT22;6230;52.390;10.256;2022-11-23T01:33:13;7.10;76.20
12329;DHT22;6230;52.390;10.256;2022-11-23T01:35:38;7.10;76.20
12329;DHT22;6230;52.390;10.256;2022-11-23T01:38:04;7.00;76.20
12329;DHT22;6230;52.390;10.256;2022-11-23T01:40:30;7.00;76.10
12329;DHT22;6230;52.390;10.256;2022-11-23T01:43:00;7.00;76.00
12329;DHT22;6230;52.390;10.256;2022-11-23T01:45:38;7.00;75.90
12329;DHT22;6230;52.390;10.256;2022-11-23T01:48:18;7.00;75.90
12329;DHT22;6230;52.390;10.256;2022-11-23T01:50:48;7.00;75.80
12329;DHT22;6230;52.390;10.256;2022-11-23T01:53:14;7.10;75.60
12329;DHT22;6230;52.390;10.256;2022-11-23T01:55:41;7.10;75.50
12329;DHT22;6230;52.390;10.256;2022-11-23T01:58:08;7.10;75.40
12329;DHT22;6230;52.390;10.256;2022-11-23T02:00:35;7.00;75.30
12329;DHT22;6230;52.390;10.256;2022-11-23T02:03:02;7.00;75.30
12329;DHT22;6230;52.390;10.256;2022-11-23T02:05:33;7.00;75.30
12329;DHT22;6230;52.390;10.256;2022-11-23T02:08:00;7.00;75.20
12329;DHT22;6230;52.390;10.256;2022-11-23T02:10:27;7.00;75.20
12329;DHT22;6230;52.390;10.256;2022-11-23T02:12:53;7.10;75.10
12329;DHT22;6230;52.390;10.256;2022-11-23T02:15:20;7.10;74.90
12329;DHT22;6230;52.390;10.256;2022-11-23T02:17:45;7.10;74.80
12329;DHT22;6230;52.390;10.256;2022-11-23T02:20:13;7.10;74.90
12329;DHT22;6230;52.390;10.256;2022-11-23T02:22:50;7.10;74.90
12329;DHT22;6230;52.390;10.256;2022-11-23T02:28:07;7.00;75.20
12329;DHT22;6230;52.390;10.256;2022-11-23T02:30:35;6.90;75.20
12329;DHT22;6230;52.390;10.256;2022-11-23T02:33:03;6.90;75.30
12329;DHT22;6230;52.390;10.256;2022-11-23T02:35:29;6.90;75.40
12329;DHT22;6230;52.390;10.256;2022-11-23T02:37:55;6.90;75.40
12329;DHT22;6230;52.390;10.256;2022-11-23T02:40:30;6.90;75.60
12329;DHT22;6230;52.390;10.256;2022-11-23T02:42:57;6.80;75.60
12329;DHT22;6230;52.390;10.256;2022-11-23T02:45:40;6.80;75.70
12329;DHT22;6230;52.390;10.256;2022-11-23T02:48:07;6.80;75.70
12329;DHT22;6230;52.390;10.256;2022-11-23T02:50:33;6.70;75.80
12329;DHT22;6230;52.390;10.256;2022-11-23T02:52:58;6.70;75.90
12329;DHT22;6230;52.390;10.256;2022-11-23T02:55:24;6.70;76.00
12329;DHT22;6230;52.390;10.256;2022-11-23T02:57:49;6.70;76.10
12329;DHT22;6230;52.390;10.256;2022-11-23T03:00:16;6.70;76.20
12329;DHT22;6230;52.390;10.256;2022-11-23T03:02:42;6.60;76.20
12329;DHT22;6230;52.390;10.256;2022-11-23T03:05:07;6.60;76.20
12329;DHT22;6230;52.390;10.256;2022-11-23T03:07:33;6.60;76.20
12329;DHT22;6230;52.390;10.256;2022-11-23T03:09:59;6.60;76.20
12329;DHT22;6230;52.390;10.256;2022-11-23T03:12:24;6.60;76.20
12329;DHT22;6230;52.390;10.256;2022-11-23T03:14:50;6.60;76.10
12329;DHT22;6230;52.390;10.256;2022-11-23T03:17:15;6.60;76.20
12329;DHT22;6230;52.390;10.256;2022-11-23T03:19:41;6.60;77.00
12329;DHT22;6230;52.390;10.256;2022-11-23T03:22:07;6.60;76.20
12329;DHT22;6230;52.390;10.256;2022-11-23T03:24:32;6.70;76.30
12329;DHT22;6230;52.390;10.256;2022-11-23T03:26:58;6.70;76.20
12329;DHT22;6230;52.390;10.256;2022-11-23T03:29:24;6.70;76.20
12329;DHT22;6230;52.390;10.256;2022-11-23T03:31:52;6.70;76.20
12329;DHT22;6230;52.390;10.256;2022-11-23T03:34:17;6.70;76.30
12329;DHT22;6230;52.390;10.256;2022-11-23T03:36:43;6.70;76.40
12329;DHT22;6230;52.390;10.256;2022-11-23T03:39:08;6.70;76.50
12329;DHT22;6230;52.390;10.256;2022-11-23T03:41:34;6.70;76.60
12329;DHT22;6230;52.390;10.256;2022-11-23T03:43:59;6.70;76.80
12329;DHT22;6230;52.390;10.256;2022-11-23T03:46:25;6.70;77.00
12329;DHT22;6230;52.390;10.256;2022-11-23T03:48:50;6.70;77.10
12329;DHT22;6230;52.390;10.256;2022-11-23T03:51:16;6.70;77.20
12329;DHT22;6230;52.390;10.256;2022-11-23T03:53:42;6.70;77.20
12329;DHT22;6230;52.390;10.256;2022-11-23T03:56:07;6.70;77.20
12329;DHT22;6230;52.390;10.256;2022-11-23T03:58:33;6.70;77.20
12329;DHT22;6230;52.390;10.256;2022-11-23T04:00:59;6.70;77.20
12329;DHT22;6230;52.390;10.256;2022-11-23T04:03:24;6.70;77.30
12329;DHT22;6230;52.390;10.256;2022-11-23T04:05:50;6.70;77.30
12329;DHT22;6230;52.390;10.256;2022-11-23T04:08:15;6.70;77.20
12329;DHT22;6230;52.390;10.256;2022-11-23T04:10:41;6.70;77.20
12329;DHT22;6230;52.390;10.256;2022-11-23T04:13:06;6.80;77.30
12329;DHT22;6230;52.390;10.256;2022-11-23T04:15:32;6.80;77.30
12329;DHT22;6230;52.390;10.256;2022-11-23T04:17:57;6.80;77.30
12329;DHT22;6230;52.390;10.256;2022-11-23T04:20:23;6.80;77.60
12329;DHT22;6230;52.390;10.256;2022-11-23T04:22:48;6.80;77.60
12329;DHT22;6230;52.390;10.256;2022-11-23T04:25:14;6.80;77.60
12329;DHT22;6230;52.390;10.256;2022-11-23T04:27:39;6.90;77.60
12329;DHT22;6230;52.390;10.256;2022-11-23T04:30:05;6.90;77.70
12329;DHT22;6230;52.390;10.256;2022-11-23T04:32:31;6.90;77.70
12329;DHT22;6230;52.390;10.256;2022-11-23T04:34:56;6.90;77.70
12329;DHT22;6230;52.390;10.256;2022-11-23T04:37:22;6.90;77.90
12329;DHT22;6230;52.390;10.256;2022-11-23T04:39:48;7.00;78.00
12329;DHT22;6230;52.390;10.256;2022-11-23T04:42:13;7.00;78.00
12329;DHT22;6230;52.390;10.256;2022-11-23T04:44:39;7.00;78.00
12329;DHT22;6230;52.390;10.256;2022-11-23T04:47:04;7.00;78.00
12329;DHT22;6230;52.390;10.256;2022-11-23T04:49:30;7.10;78.00
12329;DHT22;6230;52.390;10.256;2022-11-23T04:51:55;7.10;78.00
12329;DHT22;6230;52.390;10.256;2022-11-23T04:54:21;7.10;78.10
12329;DHT22;6230;52.390;10.256;2022-11-23T04:56:46;7.10;78.10
12329;DHT22;6230;52.390;10.256;2022-11-23T04:59:12;7.10;78.00
12329;DHT22;6230;52.390;10.256;2022-11-23T05:01:38;7.10;78.00
12329;DHT22;6230;52.390;10.256;2022-11-23T05:04:03;7.10;77.90
12329;DHT22;6230;52.390;10.256;2022-11-23T05:06:29;7.20;78.70
12329;DHT22;6230;52.390;10.256;2022-11-23T05:08:54;7.20;77.90
12329;DHT22;6230;52.390;10.256;2022-11-23T05:11:20;7.20;78.00
12329;DHT22;6230;52.390;10.256;2022-11-23T05:13:45;7.20;78.00
12329;DHT22;6230;52.390;10.256;2022-11-23T05:16:11;7.20;77.90
12329;DHT22;6230;52.390;10.256;2022-11-23T05:18:36;7.30;78.00
12329;DHT22;6230;52.390;10.256;2022-11-23T05:21:02;7.30;77.90
12329;DHT22;6230;52.390;10.256;2022-11-23T05:23:28;7.30;77.80
12329;DHT22;6230;52.390;10.256;2022-11-23T05:25:53;7.30;77.70
12329;DHT22;6230;52.390;10.256;2022-11-23T05:28:20;7.40;77.80
12329;DHT22;6230;52.390;10.256;2022-11-23T05:30:46;7.40;77.80
12329;DHT22;6230;52.390;10.256;2022-11-23T05:33:12;7.40;77.80
12329;DHT22;6230;52.390;10.256;2022-11-23T05:35:38;7.40;77.90
12329;DHT22;6230;52.390;10.256;2022-11-23T05:38:04;7.40;77.90
12329;DHT22;6230;52.390;10.256;2022-11-23T05:40:30;7.40;78.00
12329;DHT22;6230;52.390;10.256;2022-11-23T05:42:56;7.40;78.00
12329;DHT22;6230;52.390;10.256;2022-11-23T05:45:23;7.40;78.10
12329;DHT22;6230;52.390;10.256;2022-11-23T05:47:54;7.40;78.00
12329;DHT22;6230;52.390;10.256;2022-11-23T05:50:21;7.40;78.00
12329;DHT22;6230;52.390;10.256;2022-11-23T05:52:46;7.40;78.00
12329;DHT22;6230;52.390;10.256;2022-11-23T05:55:13;7.40;77.90
12329;DHT22;6230;52.390;10.256;2022-11-23T05:57:39;7.40;77.90
12329;DHT22;6230;52.390;10.256;2022-11-23T06:00:05;7.40;78.00
12329;DHT22;6230;52.390;10.256;2022-11-23T06:02:31;7.40;77.90
12329;DHT22;6230;52.390;10.256;2022-11-23T06:04:57;7.40;77.90
12329;DHT22;6230;52.390;10.256;2022-11-23T06:07:22;7.30;77.80
12329;DHT22;6230;52.390;10.256;2022-11-23T06:09:48;7.40;77.80
12329;DHT22;6230;52.390;10.256;2022-11-23T06:12:13;7.40;77.70
12329;DHT22;6230;52.390;10.256;2022-11-23T06:14:39;7.40;77.70
12329;DHT22;6230;52.390;10.256;2022-11-23T06:17:04;7.30;77.70
12329;DHT22;6230;52.390;10.256;2022-11-23T06:19:30;7.40;77.80
12329;DHT22;6230;52.390;10.256;2022-11-23T06:21:56;7.40;77.70
12329;DHT22;6230;52.390;10.256;2022-11-23T06:24:23;7.40;77.60
12329;DHT22;6230;52.390;10.256;2022-11-23T06:26:50;7.40;77.50
12329;DHT22;6230;52.390;10.256;2022-11-23T06:29:15;7.50;77.50
12329;DHT22;6230;52.390;10.256;2022-11-23T06:31:41;7.50;77.50
12329;DHT22;6230;52.390;10.256;2022-11-23T06:34:06;7.50;77.30
12329;DHT22;6230;52.390;10.256;2022-11-23T06:36:32;7.60;77.30
12329;DHT22;6230;52.390;10.256;2022-11-23T06:38:57;7.60;77.20
12329;DHT22;6230;52.390;10.256;2022-11-23T06:41:23;7.60;77.10
12329;DHT22;6230;52.390;10.256;2022-11-23T06:43:49;7.60;77.10
12329;DHT22;6230;52.390;10.256;2022-11-23T06:46:15;7.60;77.00
12329;DHT22;6230;52.390;10.256;2022-11-23T06:48:43;7.60;77.00
12329;DHT22;6230;52.390;10.256;2022-11-23T06:51:09;7.70;77.10
12329;DHT22;6230;52.390;10.256;2022-11-23T06:53:34;7.70;77.10
12329;DHT22;6230;52.390;10.256;2022-11-23T06:56:00;7.70;77.00
12329;DHT22;6230;52.390;10.256;2022-11-23T06:58:27;7.70;77.00
12329;DHT22;6230;52.390;10.256;2022-11-23T07:00:53;7.70;77.00
12329;DHT22;6230;52.390;10.256;2022-11-23T07:03:21;7.70;77.20
12329;DHT22;6230;52.390;10.256;2022-11-23T07:05:47;7.70;78.10
12329;DHT22;6230;52.390;10.256;2022-11-23T07:08:13;7.60;77.30
12329;DHT22;6230;52.390;10.256;2022-11-23T07:10:39;7.70;77.50
12329;DHT22;6230;52.390;10.256;2022-11-23T07:13:05;7.60;77.60
12329;DHT22;6230;52.390;10.256;2022-11-23T07:15:32;7.60;77.70
12329;DHT22;6230;52.390;10.256;2022-11-23T07:17:57;7.60;77.80
12329;DHT22;6230;52.390;10.256;2022-11-23T07:20:23;7.60;77.80
12329;DHT22;6230;52.390;10.256;2022-11-23T07:23:01;7.60;77.90
12329;DHT22;6230;52.390;10.256;2022-11-23T07:25:32;7.60;77.90
12329;DHT22;6230;52.390;10.256;2022-11-23T07:27:59;7.60;77.90
12329;DHT22;6230;52.390;10.256;2022-11-23T07:30:26;7.60;78.00
12329;DHT22;6230;52.390;10.256;2022-11-23T07:32:52;7.60;78.10
12329;DHT22;6230;52.390;10.256;2022-11-23T07:35:21;7.60;78.10
12329;DHT22;6230;52.390;10.256;2022-11-23T07:37:46;7.60;78.00
12329;DHT22;6230;52.390;10.256;2022-11-23T07:40:12;7.60;78.00
12329;DHT22;6230;52.390;10.256;2022-11-23T07:42:38;7.60;77.90
12329;DHT22;6230;52.390;10.256;2022-11-23T07:45:04;7.70;78.00
12329;DHT22;6230;52.390;10.256;2022-11-23T07:47:31;7.60;77.90
12329;DHT22;6230;52.390;10.256;2022-11-23T07:49:56;7.70;78.10
12329;DHT22;6230;52.390;10.256;2022-11-23T07:52:22;7.60;78.00
12329;DHT22;6230;52.390;10.256;2022-11-23T07:54:48;7.60;78.00
12329;DHT22;6230;52.390;10.256;2022-11-23T07:57:13;7.60;78.00
12329;DHT22;6230;52.390;10.256;2022-11-23T07:59:39;7.70;78.00
12329;DHT22;6230;52.390;10.256;2022-11-23T08:02:05;7.70;78.00
12329;DHT22;6230;52.390;10.256;2022-11-23T08:04:30;7.80;77.90
12329;DHT22;6230;52.390;10.256;2022-11-23T08:06:56;7.80;78.00
12329;DHT22;6230;52.390;10.256;2022-11-23T08:09:22;7.80;78.00
12329;DHT22;6230;52.390;10.256;2022-11-23T08:11:47;7.90;78.10
12329;DHT22;6230;52.390;10.256;2022-11-23T08:14:13;8.00;78.20
12329;DHT22;6230;52.390;10.256;2022-11-23T08:16:38;8.00;78.20
12329;DHT22;6230;52.390;10.256;2022-11-23T08:19:04;8.00;78.20
12329;DHT22;6230;52.390;10.256;2022-11-23T08:21:30;8.10;78.30
12329;DHT22;6230;52.390;10.256;2022-11-23T08:23:55;8.10;78.30
12329;DHT22;6230;52.390;10.256;2022-11-23T08:26:21;8.20;78.30
12329;DHT22;6230;52.390;10.256;2022-11-23T08:28:46;8.20;78.30
12329;DHT22;6230;52.390;10.256;2022-11-23T08:31:12;8.20;78.30
12329;DHT22;6230;52.390;10.256;2022-11-23T08:33:39;8.30;78.20
12329;DHT22;6230;52.390;10.256;2022-11-23T08:36:06;8.30;78.20
12329;DHT22;6230;52.390;10.256;2022-11-23T08:38:32;8.30;78.10
12329;DHT22;6230;52.390;10.256;2022-11-23T08:40:58;8.40;78.10
12329;DHT22;6230;52.390;10.256;2022-11-23T08:43:25;8.40;78.10
12329;DHT22;6230;52.390;10.256;2022-11-23T08:45:56;8.50;78.10
12329;DHT22;6230;52.390;10.256;2022-11-23T08:48:22;8.50;78.00
12329;DHT22;6230;52.390;10.256;2022-11-23T08:50:47;8.60;78.10
12329;DHT22;6230;52.390;10.256;2022-11-23T08:53:13;8.70;78.20
12329;DHT22;6230;52.390;10.256;2022-11-23T08:55:39;8.80;78.20
12329;DHT22;6230;52.390;10.256;2022-11-23T08:58:04;8.90;78.30
12329;DHT22;6230;52.390;10.256;2022-11-23T09:00:31;9.00;78.20
12329;DHT22;6230;52.390;10.256;2022-11-23T09:02:57;9.20;78.10
12329;DHT22;6230;52.390;10.256;2022-11-23T09:05:23;9.30;78.10
12329;DHT22;6230;52.390;10.256;2022-11-23T09:07:49;9.40;78.00
12329;DHT22;6230;52.390;10.256;2022-11-23T09:10:15;9.50;78.00
12329;DHT22;6230;52.390;10.256;2022-11-23T09:12:41;9.60;78.00
12329;DHT22;6230;52.390;10.256;2022-11-23T09:15:07;9.70;77.90
12329;DHT22;6230;52.390;10.256;2022-11-23T09:17:32;9.80;77.70
12329;DHT22;6230;52.390;10.256;2022-11-23T09:19:58;9.90;77.60
12329;DHT22;6230;52.390;10.256;2022-11-23T09:22:24;9.90;77.50
12329;DHT22;6230;52.390;10.256;2022-11-23T09:24:51;10.00;77.50
12329;DHT22;6230;52.390;10.256;2022-11-23T09:27:17;10.00;77.30
12329;DHT22;6230;52.390;10.256;2022-11-23T09:29:42;10.10;77.20
12329;DHT22;6230;52.390;10.256;2022-11-23T09:32:08;10.10;77.10
12329;DHT22;6230;52.390;10.256;2022-11-23T09:34:33;10.20;77.10
12329;DHT22;6230;52.390;10.256;2022-11-23T09:36:59;10.20;77.00
12329;DHT22;6230;52.390;10.256;2022-11-23T09:39:24;10.30;77.00
12329;DHT22;6230;52.390;10.256;2022-11-23T09:49:43;10.40;76.70
12329;DHT22;6230;52.390;10.256;2022-11-23T09:52:19;10.50;76.70
12329;DHT22;6230;52.390;10.256;2022-11-23T09:54:47;10.50;76.60
12329;DHT22;6230;52.390;10.256;2022-11-23T09:57:19;10.60;76.60
12329;DHT22;6230;52.390;10.256;2022-11-23T09:59:51;10.60;76.50
12329;DHT22;6230;52.390;10.256;2022-11-23T10:02:21;10.60;76.40
12329;DHT22;6230;52.390;10.256;2022-11-23T10:04:47;10.60;76.30
12329;DHT22;6230;52.390;10.256;2022-11-23T10:10:50;10.70;76.30
12329;DHT22;6230;52.390;10.256;2022-11-23T10:13:05;10.70;76.30
12329;DHT22;6230;52.390;10.256;2022-11-23T10:15:51;10.80;76.30
12329;DHT22;6230;52.390;10.256;2022-11-23T10:21:32;10.90;76.20
12329;DHT22;6230;52.390;10.256;2022-11-23T10:26:36;10.90;76.00
12329;DHT22;6230;52.390;10.256;2022-11-23T10:29:24;10.90;76.00
12329;DHT22;6230;52.390;10.256;2022-11-23T10:31:50;10.90;75.90
12329;DHT22;6230;52.390;10.256;2022-11-23T10:34:25;11.00;75.90
12329;DHT22;6230;52.390;10.256;2022-11-23T10:36:57;11.00;75.90
12329;DHT22;6230;52.390;10.256;2022-11-23T10:39:26;11.00;75.60
12329;DHT22;6230;52.390;10.256;2022-11-23T10:41:53;11.10;75.60
12329;DHT22;6230;52.390;10.256;2022-11-23T10:44:34;11.20;75.40
12329;DHT22;6230;52.390;10.256;2022-11-23T10:47:02;11.10;75.30
12329;DHT22;6230;52.390;10.256;2022-11-23T10:49:30;11.10;75.30
12329;DHT22;6230;52.390;10.256;2022-11-23T10:52:05;11.10;75.10
12329;DHT22;6230;52.390;10.256;2022-11-23T10:54:55;11.20;75.10
12329;DHT22;6230;52.390;10.256;2022-11-23T10:57:29;11.20;75.00
12329;DHT22;6230;52.390;10.256;2022-11-23T10:59:58;11.20;74.90
12329;DHT22;6230;52.390;10.256;2022-11-23T11:02:24;11.20;74.80
12329;DHT22;6230;52.390;10.256;2022-11-23T11:04:50;11.20;74.80
12329;DHT22;6230;52.390;10.256;2022-11-23T11:07:37;11.20;74.70
12329;DHT22;6230;52.390;10.256;2022-11-23T11:10:04;11.20;74.80
12329;DHT22;6230;52.390;10.256;2022-11-23T11:12:33;11.30;74.90
12329;DHT22;6230;52.390;10.256;2022-11-23T11:17:32;11.20;75.00
12329;DHT22;6230;52.390;10.256;2022-11-23T11:20:00;11.20;75.10
12329;DHT22;6230;52.390;10.256;2022-11-23T11:22:36;11.30;75.20
12329;DHT22;6230;52.390;10.256;2022-11-23T11:25:06;11.30;75.30
12329;DHT22;6230;52.390;10.256;2022-11-23T11:27:32;11.30;75.60
12329;DHT22;6230;52.390;10.256;2022-11-23T11:30:06;11.40;75.50
12329;DHT22;6230;52.390;10.256;2022-11-23T11:35:35;11.50;75.40
12329;DHT22;6230;52.390;10.256;2022-11-23T11:38:29;11.50;75.20
12329;DHT22;6230;52.390;10.256;2022-11-23T11:40:59;11.60;75.00
12329;DHT22;6230;52.390;10.256;2022-11-23T11:43:33;11.60;74.90
12329;DHT22;6230;52.390;10.256;2022-11-23T11:46:03;11.60;74.80
12329;DHT22;6230;52.390;10.256;2022-11-23T11:48:36;11.60;74.70
12329;DHT22;6230;52.390;10.256;2022-11-23T11:56:26;11.70;74.50
12329;DHT22;6230;52.390;10.256;2022-11-23T11:59:21;11.70;74.40
12329;DHT22;6230;52.390;10.256;2022-11-23T12:01:54;11.70;74.30
12329;DHT22;6230;52.390;10.256;2022-11-23T12:07:26;11.70;74.00
12329;DHT22;6230;52.390;10.256;2022-11-23T12:09:56;11.70;74.00
12329;DHT22;6230;52.390;10.256;2022-11-23T12:12:24;11.70;73.90
12329;DHT22;6230;52.390;10.256;2022-11-23T12:14:50;11.80;74.00
12329;DHT22;6230;52.390;10.256;2022-11-23T12:23:07;11.90;73.90
12329;DHT22;6230;52.390;10.256;2022-11-23T12:25:50;12.00;73.90
12329;DHT22;6230;52.390;10.256;2022-11-23T12:28:54;12.00;73.80
12329;DHT22;6230;52.390;10.256;2022-11-23T12:31:46;12.10;73.70
12329;DHT22;6230;52.390;10.256;2022-11-23T12:37:19;12.30;73.50
12329;DHT22;6230;52.390;10.256;2022-11-23T12:42:33;12.40;73.20
12329;DHT22;6230;52.390;10.256;2022-11-23T12:56:54;12.50;72.50
12329;DHT22;6230;52.390;10.256;2022-11-23T12:59:22;12.60;72.50
12329;DHT22;6230;52.390;10.256;2022-11-23T13:01:53;12.60;72.50
12329;DHT22;6230;52.390;10.256;2022-11-23T13:18:10;13.20;71.10
12329;DHT22;6230;52.390;10.256;2022-11-23T13:23:37;14.00;70.90
12329;DHT22;6230;52.390;10.256;2022-11-23T13:28:38;15.20;68.80
12329;DHT22;6230;52.390;10.256;2022-11-23T13:31:22;15.70;68.20
12329;DHT22;6230;52.390;10.256;2022-11-23T13:33:54;16.20;66.70
12329;DHT22;6230;52.390;10.256;2022-11-23T13:38:56;16.80;65.00
12329;DHT22;6230;52.390;10.256;2022-11-23T13:46:54;17.40;62.80
12329;DHT22;6230;52.390;10.256;2022-11-23T13:49:39;17.40;62.70
12329;DHT22;6230;52.390;10.256;2022-11-23T13:55:04;16.90;61.20
12329;DHT22;6230;52.390;10.256;2022-11-23T13:57:30;16.50;60.90
12329;DHT22;6230;52.390;10.256;2022-11-23T14:06:08;15.20;62.60
12329;DHT22;6230;52.390;10.256;2022-11-23T14:08:36;15.00;63.70
12329;DHT22;6230;52.390;10.256;2022-11-23T14:11:17;14.70;63.60
12329;DHT22;6230;52.390;10.256;2022-11-23T14:13:56;14.50;63.80
12329;DHT22;6230;52.390;10.256;2022-11-23T14:19:57;14.10;63.70
12329;DHT22;6230;52.390;10.256;2022-11-23T14:25:43;13.70;64.30
12329;DHT22;6230;52.390;10.256;2022-11-23T14:30:58;13.40;64.70
12329;DHT22;6230;52.390;10.256;2022-11-23T14:36:05;13.20;64.90
12329;DHT22;6230;52.390;10.256;2022-11-23T14:39:07;13.10;65.00
12329;DHT22;6230;52.390;10.256;2022-11-23T14:41:34;13.00;65.20
12329;DHT22;6230;52.390;10.256;2022-11-23T14:44:04;12.90;65.20
12329;DHT22;6230;52.390;10.256;2022-11-23T14:46:30;12.80;65.30
12329;DHT22;6230;52.390;10.256;2022-11-23T14:49:04;12.80;65.40
12329;DHT22;6230;52.390;10.256;2022-11-23T14:51:32;12.70;65.50
12329;DHT22;6230;52.390;10.256;2022-11-23T14:54:00;12.70;65.60
12329;DHT22;6230;52.390;10.256;2022-11-23T14:56:36;12.60;65.70
12329;DHT22;6230;52.390;10.256;2022-11-23T14:59:14;12.50;65.70
12329;DHT22;6230;52.390;10.256;2022-11-23T15:04:33;12.40;65.80
12329;DHT22;6230;52.390;10.256;2022-11-23T15:07:22;12.30;65.90
12329;DHT22;6230;52.390;10.256;2022-11-23T15:09:57;12.20;66.70
12329;DHT22;6230;52.390;10.256;2022-11-23T15:12:47;12.20;66.00
12329;DHT22;6230;52.390;10.256;2022-11-23T15:17:56;12.10;66.00
12329;DHT22;6230;52.390;10.256;2022-11-23T15:20:26;12.00;66.10
12329;DHT22;6230;52.390;10.256;2022-11-23T15:22:52;12.00;66.20
12329;DHT22;6230;52.390;10.256;2022-11-23T15:25:18;11.90;66.30
12329;DHT22;6230;52.390;10.256;2022-11-23T15:27:46;11.90;66.40
12329;DHT22;6230;52.390;10.256;2022-11-23T15:30:27;11.80;66.40
12329;DHT22;6230;52.390;10.256;2022-11-23T15:33:07;11.70;66.50
12329;DHT22;6230;52.390;10.256;2022-11-23T15:35:36;11.70;67.30
12329;DHT22;6230;52.390;10.256;2022-11-23T15:38:03;11.70;66.60
12329;DHT22;6230;52.390;10.256;2022-11-23T15:40:34;11.70;66.60
12329;DHT22;6230;52.390;10.256;2022-11-23T15:43:00;11.60;66.60
12329;DHT22;6230;52.390;10.256;2022-11-23T15:45:38;11.50;66.60
12329;DHT22;6230;52.390;10.256;2022-11-23T15:48:14;11.50;66.70
12329;DHT22;6230;52.390;10.256;2022-11-23T15:51:01;11.40;66.70
12329;DHT22;6230;52.390;10.256;2022-11-23T15:53:49;11.30;66.70
12329;DHT22;6230;52.390;10.256;2022-11-23T15:56:35;11.30;66.70
12329;DHT22;6230;52.390;10.256;2022-11-23T16:01:47;11.20;66.70
12329;DHT22;6230;52.390;10.256;2022-11-23T16:04:40;11.10;66.70
12329;DHT22;6230;52.390;10.256;2022-11-23T16:07:17;11.10;66.90
12329;DHT22;6230;52.390;10.256;2022-11-23T16:09:47;11.00;66.80
12329;DHT22;6230;52.390;10.256;2022-11-23T16:12:28;11.00;67.00
12329;DHT22;6230;52.390;10.256;2022-11-23T16:15:28;11.00;67.00
12329;DHT22;6230;52.390;10.256;2022-11-23T16:17:43;10.90;67.10
12329;DHT22;6230;52.390;10.256;2022-11-23T16:20:14;10.90;67.20
12329;DHT22;6230;52.390;10.256;2022-11-23T16:22:46;10.90;67.30
12329;DHT22;6230;52.390;10.256;2022-11-23T16:25:28;10.80;67.40
12329;DHT22;6230;52.390;10.256;2022-11-23T16:28:04;10.80;67.40
12329;DHT22;6230;52.390;10.256;2022-11-23T16:30:39;10.70;67.50
12329;DHT22;6230;52.390;10.256;2022-11-23T16:33:12;10.70;67.60
12329;DHT22;6230;52.390;10.256;2022-11-23T16:35:38;10.60;67.70
12329;DHT22;6230;52.390;10.256;2022-11-23T16:38:04;10.60;67.90
12329;DHT22;6230;52.390;10.256;2022-11-23T16:40:30;10.60;68.00
12329;DHT22;6230;52.390;10.256;2022-11-23T16:42:56;10.50;68.10
12329;DHT22;6230;52.390;10.256;2022-11-23T16:45:22;10.50;68.30
12329;DHT22;6230;52.390;10.256;2022-11-23T16:47:59;10.50;68.40
12329;DHT22;6230;52.390;10.256;2022-11-23T16:50:30;10.50;68.60
12329;DHT22;6230;52.390;10.256;2022-11-23T16:52:56;10.40;68.60
12329;DHT22;6230;52.390;10.256;2022-11-23T16:55:25;10.40;68.70
12329;DHT22;6230;52.390;10.256;2022-11-23T16:57:50;10.40;68.80
12329;DHT22;6230;52.390;10.256;2022-11-23T17:00:20;10.40;68.80
12329;DHT22;6230;52.390;10.256;2022-11-23T17:02:47;10.30;68.80
12329;DHT22;6230;52.390;10.256;2022-11-23T17:05:17;10.30;68.80
12329;DHT22;6230;52.390;10.256;2022-11-23T17:07:43;10.30;68.90
12329;DHT22;6230;52.390;10.256;2022-11-23T17:10:11;10.30;68.90
12329;DHT22;6230;52.390;10.256;2022-11-23T17:12:37;10.30;69.00
12329;DHT22;6230;52.390;10.256;2022-11-23T17:15:04;10.30;69.00
12329;DHT22;6230;52.390;10.256;2022-11-23T17:17:30;10.20;69.10
12329;DHT22;6230;52.390;10.256;2022-11-23T17:19:56;10.20;69.20
12329;DHT22;6230;52.390;10.256;2022-11-23T17:22:22;10.20;69.20
12329;DHT22;6230;52.390;10.256;2022-11-23T17:24:48;10.20;69.20
12329;DHT22;6230;52.390;10.256;2022-11-23T17:27:21;10.20;69.30
12329;DHT22;6230;52.390;10.256;2022-11-23T17:29:54;10.10;69.30
12329;DHT22;6230;52.390;10.256;2022-11-23T17:32:20;10.10;69.40
12329;DHT22;6230;52.390;10.256;2022-11-23T17:34:46;10.10;69.40
12329;DHT22;6230;52.390;10.256;2022-11-23T17:37:17;10.10;69.60
12329;DHT22;6230;52.390;10.256;2022-11-23T17:39:44;10.00;69.50
12329;DHT22;6230;52.390;10.256;2022-11-23T17:42:10;10.00;69.40